• Join FlightAware (Why Join?)
  • Login
  • US Flag 
12:45PM EDT


 

Airport Tracker/Info


-or-


 

Live Flight TrackerFlight Track Log ✈ N269AM ✈ 22-Jun-2013 ✈ KOLM - KUAO

Flight Track Log - Related Links

Times and Time Zones

All times are in EDT time to prevent confusion due to time zone crossing. See the N269AM flight status page for this flight to view local times or setup timezone preferences in your user account.

Time Position Orientation Groundspeed Altitude Reporting Facility
EDT Latitude Longitude Course Direction KTS MPH feet Rate Location/Type
05:43PM 46.9139 -122.8894 164° South 63 72 2,000  Level Seattle Center
05:44PM 46.8958 -122.8831 166° South 67 77 2,600 480 Climbing Seattle Center
05:45PM 46.8789 -122.8792 171° South 62 71 3,100 420 Climbing Seattle Center
05:46PM 46.8622 -122.8894 203° Southwest 64 74 3,500 360 Climbing Seattle Center
05:47PM 46.8439 -122.9033 207° Southwest 69 79 3,900 360 Climbing Seattle Center
05:48PM 46.8272 -122.9156 207° Southwest 70 81 4,300 360 Climbing Seattle Center
05:49PM 46.8142 -122.9358 227° Southwest 69 79 4,700 420 Climbing Seattle Center
05:50PM 46.7972 -122.9439 198° South 63 72 5,200 420 Climbing Seattle Center
05:51PM 46.7789 -122.9514 196° South 62 71 5,600 360 Climbing Seattle Center
05:52PM 46.7606 -122.9536 185° South 65 75 6,000 360 Climbing Seattle Center
05:54PM 46.7431 -122.9683 210° Southwest 68 78 6,400 360 Climbing Seattle Center
05:55PM 46.7283 -122.9839 216° Southwest 68 78 6,800 240 Climbing Seattle Center
05:56PM 46.7117 -122.9961 207° Southwest 67 77 7,000 120 Climbing Seattle Center
05:57PM 46.6950 -123.0086 207° Southwest 69 79 7,100  Climbing Seattle Center
05:58PM 46.6761 -123.0231 208° Southwest 74 85 7,000  Descending Seattle Center
05:59PM 46.6556 -123.0203 175° South 72 83 7,100  Climbing Seattle Center
06:00PM 46.6347 -123.0253 189° South 77 89 7,100  Level Seattle Center
06:01PM 46.6156 -123.0394 207° Southwest 77 89 7,100  Level Seattle Center
06:02PM 46.5936 -123.0556 207° Southwest 75 86 7,200  Climbing Seattle Center
06:03PM 46.5733 -123.0656 199° South 77 89 7,200 -120 Level Seattle Center
06:04PM 46.5506 -123.0719 191° South 80 92 7,000 -120 Descending Seattle Center
06:05PM 46.5289 -123.0797 194° South 81 93 7,000  Level Seattle Center
06:06PM 46.5069 -123.0872 193° South 81 93 7,000  Level Seattle Center
06:07PM 46.4856 -123.0986 200° South 82 94 7,100  Climbing Seattle Center
06:08PM 46.4642 -123.1058 193° South 80 92 7,100 -60 Level Seattle Center
06:09PM 46.4417 -123.1150 196° South 80 92 7,000 -60 Descending Seattle Center
06:10PM 46.4183 -123.1214 191° South 84 97 7,000 -60 Level Seattle Center
06:11PM 46.3969 -123.1058 153° Southeast 81 93 6,900 -60 Descending Seattle Center
06:12PM 46.3722 -123.0969 166° South 89 102 6,900  Level Seattle Center
06:13PM 46.3450 -123.1028 188° South 85 98 6,900  Level Seattle Center
06:14PM 46.3222 -123.1000 175° South 83 96 6,900  Level Seattle Center
06:15PM 46.3014 -123.1000 180° South 77 89 7,000 60 Climbing Seattle Center
06:16PM 46.2794 -123.1006 181° South 78 90 7,100  Climbing Seattle Center
06:17PM 46.2544 -123.0992 178° South 87 100 7,100  Level Seattle Center
06:17PM 46.2389 -123.0989 179° South 88 101 7,100 -120 Level Seattle Center
06:18PM 46.2231 -123.0958 172° South 90 104 7,000 -180 Descending Seattle Center
06:19PM 46.1958 -123.1006 187° South 94 108 6,900 -60 Descending Seattle Center
06:20PM 46.1797 -123.0956 168° South 89 102 6,900  Level Seattle Center
06:21PM 46.1597 -123.0775 148° Southeast 82 94 6,900  Level Seattle Center
06:22PM 46.1394 -123.0547 142° Southeast 88 101 6,900  Level Seattle Center
06:23PM 46.1189 -123.0303 140° Southeast 92 106 6,900  Level Seattle Center
06:24PM 46.1000 -123.0089 142° Southeast 89 102 6,900  Level Seattle Center
06:25PM 46.0786 -122.9878 146° Southeast 80 92 7,000 60 Climbing Seattle Center
06:26PM 46.0603 -122.9672 142° Southeast 82 94 7,100  Climbing Seattle Center
06:27PM 46.0403 -122.9458 143° Southeast 82 94 7,100 -60 Level Seattle Center
06:28PM 46.0264 -122.9264 136° Southeast 80 92 7,000 -60 Descending Seattle Center
06:29PM 46.0072 -122.9042 141° Southeast 85 98 7,000  Level Seattle Center
06:30PM 45.9869 -122.8856 147° Southeast 86 99 7,100  Climbing Seattle Center
06:31PM 45.9711 -122.8664 140° Southeast 79 91 7,100 -60 Level Seattle Center
06:32PM 45.9531 -122.8475 144° Southeast 80 92 7,000 -60 Descending Seattle Center
06:33PM 45.9358 -122.8256 138° Southeast 82 94 7,000 -300 Level Seattle Center
06:34PM 45.9167 -122.8014 139° Southeast 87 100 6,500 -420 Descending Seattle Center
06:35PM 45.8961 -122.7783 142° Southeast 92 106 6,200 -480 Descending Seattle Center
06:36PM 45.8700 -122.7578 151° Southeast 91 105 5,600 -600 Descending Seattle Center
06:37PM 45.8525 -122.7322 135° Southeast 89 102 5,100 -540 Descending Seattle Center
06:38PM 45.8325 -122.7047 136° Southeast 95 109 4,600 -480 Descending Seattle Center
06:39PM 45.8108 -122.6797 141° Southeast 98 113 4,200 -300 Descending Seattle Center
06:40PM 45.7914 -122.6536 137° Southeast 98 113 4,000 -120 Descending Seattle Center
06:41PM 45.7731 -122.6356 146° Southeast 91 105 4,000  Level Seattle Center
06:42PM 45.7594 -122.6125 130° Southeast 80 92 4,000  Level Seattle Center
06:43PM 45.7436 -122.5897 135° Southeast 80 92 4,100  Climbing Seattle Center
06:44PM 45.7225 -122.5769 157° South 82 94 4,000 -60 Descending Seattle Center
06:45PM 45.6981 -122.5775 181° South 87 100 4,000  Level Seattle Center
06:46PM 45.6736 -122.5758 177° South 88 101 4,000 -60 Level Seattle Center
06:47PM 45.6481 -122.5739 177° South 90 104 3,900 -60 Descending Seattle Center
06:49PM 45.6106 -122.5725 179° South 92 106 3,900  Level Seattle Center
06:49PM 45.5933 -122.5789 195° South 90 104 3,900  Level Seattle Center
06:50PM 45.5747 -122.6006 219° Southwest 86 99 3,900  Level Seattle Center
06:52PM 45.5589 -122.6275 230° Southwest 86 99 3,900 -60 Level Seattle Center
06:53PM 45.5397 -122.6508 220° Southwest 88 101 3,800 -300 Descending Seattle Center
06:54PM 45.5183 -122.6708 213° Southwest 91 105 3,400 -300 Descending Seattle Center
06:55PM 45.4972 -122.6922 215° Southwest 92 106 3,200 -300 Descending Seattle Center
06:56PM 45.4781 -122.7153 220° Southwest 91 105 2,900 -240 Descending Seattle Center
06:57PM 45.4597 -122.7344 216° Southwest 87 100 2,800 -240 Descending Seattle Center
06:58PM 45.4328 -122.7333 178° South 85 98 2,500 -300 Descending Seattle Center